Time;durP1;ratioP1;P1;durP2;ratioP2;P2;SDS_P1;SDS_P2;PMS_P1;PMS_P2;Temp;Humidity;BMP_temperature;BMP_pressure;BME280_temperature;BME280_humidity;BME280_pressure;Samples;Min_cycle;Max_cycle;Signal;HPM_P1;HPM_P2
2022/12/16 00:00:25;;;;;;;62.20;41.50;;;-0.70;99.90;;;;;;5071966;28;20298;-35
2022/12/16 00:02:51;;;;;;;63.72;40.35;;;-0.70;99.90;;;;;;5071717;28;20398;-35
2022/12/16 00:05:21;;;;;;;55.17;37.15;;;-0.70;99.90;;;;;;5072294;28;20402;-35
2022/12/16 00:07:47;;;;;;;60.72;40.50;;;-0.70;99.90;;;;;;5071477;28;20044;-35
2022/12/16 00:10:13;;;;;;;56.90;38.33;;;-0.70;99.90;;;;;;5071424;28;20477;-35
2022/12/16 00:12:39;;;;;;;65.25;43.63;;;-0.70;99.90;;;;;;5070765;28;20033;-35
2022/12/16 00:15:06;;;;;;;64.60;41.65;;;-0.60;99.90;;;;;;5070989;28;20044;-34
2022/12/16 00:17:32;;;;;;;60.92;39.42;;;-0.60;99.90;;;;;;5067987;28;20037;-35
2022/12/16 00:19:57;;;;;;;59.95;39.20;;;-0.60;99.90;;;;;;5066408;28;20058;-35
2022/12/16 00:22:23;;;;;;;57.03;38.03;;;-0.60;99.90;;;;;;5071265;28;20469;-35
2022/12/16 00:24:49;;;;;;;54.80;37.25;;;-0.60;99.90;;;;;;5071621;28;20444;-34
2022/12/16 00:27:15;;;;;;;61.67;40.88;;;-0.60;99.90;;;;;;5069346;28;20063;-34
2022/12/16 00:29:41;;;;;;;49.80;36.75;;;-0.60;99.90;;;;;;5071663;28;20131;-35
2022/12/16 00:32:07;;;;;;;59.55;38.65;;;-0.60;99.90;;;;;;5063504;28;20413;-35
2022/12/16 00:34:32;;;;;;;56.13;36.67;;;-0.60;99.90;;;;;;5068040;28;20487;-35
2022/12/16 00:36:58;;;;;;;58.45;38.35;;;-0.60;99.90;;;;;;5071559;28;20094;-35
2022/12/16 00:39:24;;;;;;;60.30;39.47;;;-0.60;99.90;;;;;;5060406;28;20082;-35
2022/12/16 00:41:50;;;;;;;56.88;38.08;;;-0.60;99.90;;;;;;5066304;28;20402;-35
2022/12/16 00:44:16;;;;;;;57.63;37.78;;;-0.60;99.90;;;;;;5067673;28;20490;-35
2022/12/16 00:46:42;;;;;;;58.83;38.67;;;-0.60;99.90;;;;;;5071609;28;20033;-35
2022/12/16 00:49:08;;;;;;;58.53;38.42;;;-0.60;99.90;;;;;;5071387;28;20421;-35
2022/12/16 00:51:34;;;;;;;61.90;38.42;;;-0.60;99.90;;;;;;5069886;28;20047;-34
2022/12/16 00:53:59;;;;;;;57.58;39.05;;;-0.60;99.90;;;;;;5071313;28;20048;-35
2022/12/16 00:56:25;;;;;;;64.97;41.65;;;-0.60;99.90;;;;;;5070305;28;20045;-35
2022/12/16 00:58:51;;;;;;;65.00;40.33;;;-0.60;99.90;;;;;;5072069;28;20036;-35
2022/12/16 01:01:17;;;;;;;56.88;37.95;;;-0.60;99.90;;;;;;5070473;28;20036;-35
2022/12/16 01:03:42;;;;;;;57.38;37.88;;;-0.60;99.90;;;;;;5070864;28;20044;-35
2022/12/16 01:06:14;;;;;;;62.35;39.72;;;-0.60;99.90;;;;;;5070819;28;20036;-35
2022/12/16 01:08:39;;;;;;;63.13;40.40;;;-0.60;99.90;;;;;;5070850;28;20032;-35
2022/12/16 01:11:05;;;;;;;64.20;40.50;;;-0.60;99.90;;;;;;5070818;28;20627;-35
2022/12/16 01:13:32;;;;;;;62.22;41.08;;;-0.50;99.90;;;;;;5070098;28;20036;-35
2022/12/16 01:16:00;;;;;;;66.78;42.03;;;-0.50;99.90;;;;;;5070345;28;20153;-35
2022/12/16 01:18:26;;;;;;;65.95;40.97;;;-0.50;99.90;;;;;;5067368;28;20046;-35
2022/12/16 01:20:52;;;;;;;66.65;41.80;;;-0.50;99.90;;;;;;5065588;28;20032;-35
2022/12/16 01:23:18;;;;;;;65.80;41.47;;;-0.50;99.90;;;;;;5070399;28;20040;-35
2022/12/16 01:25:43;;;;;;;72.13;44.33;;;-0.50;99.90;;;;;;5065674;28;20433;-35
2022/12/16 01:28:09;;;;;;;101.20;55.13;;;-0.50;99.90;;;;;;5070468;28;20123;-35
2022/12/16 01:30:35;;;;;;;79.78;47.33;;;-0.50;99.90;;;;;;5065917;28;20032;-35
2022/12/16 01:33:01;;;;;;;70.50;43.55;;;-0.50;99.90;;;;;;5054132;28;20040;-35
2022/12/16 01:35:27;;;;;;;64.15;38.97;;;-0.50;99.90;;;;;;5070509;28;20036;-35
2022/12/16 01:37:52;;;;;;;65.63;38.80;;;-0.50;99.90;;;;;;5069873;28;20453;-34
2022/12/16 01:40:21;;;;;;;61.78;40.97;;;-0.50;99.90;;;;;;5069653;28;20047;-35
2022/12/16 01:42:48;;;;;;;56.22;37.70;;;-0.50;99.90;;;;;;5069816;28;20036;-35
2022/12/16 01:45:34;;;;;;;54.95;36.83;;;-0.50;99.90;;;;;;5070499;28;20037;-35
2022/12/16 01:48:33;;;;;;;57.10;36.58;;;-0.50;99.90;;;;;;5068904;28;20033;-34
2022/12/16 01:51:04;;;;;;;58.88;38.40;;;-0.50;99.90;;;;;;5064616;28;20094;-35
2022/12/16 01:53:31;;;;;;;54.63;38.20;;;-0.50;99.90;;;;;;5068725;28;20108;-35
2022/12/16 01:55:59;;;;;;;56.83;38.05;;;-0.50;99.90;;;;;;5056523;28;20094;-35
2022/12/16 01:58:29;;;;;;;57.28;38.38;;;-0.50;99.90;;;;;;5065291;28;20036;-35
2022/12/16 02:00:54;;;;;;;55.50;37.47;;;-0.50;99.90;;;;;;5063015;28;20127;-35
2022/12/16 02:03:21;;;;;;;59.47;40.03;;;-0.50;99.90;;;;;;5064089;28;20107;-35
2022/12/16 02:05:48;;;;;;;54.75;39.00;;;-0.50;99.90;;;;;;5064133;28;20128;-35
2022/12/16 02:08:16;;;;;;;56.35;36.88;;;-0.50;99.90;;;;;;5066565;28;20395;-35
2022/12/16 02:10:42;;;;;;;60.25;38.85;;;-0.50;99.90;;;;;;5069823;28;20089;-35
2022/12/16 02:13:45;;;;;;;59.03;38.60;;;-0.50;99.90;;;;;;5068442;28;20044;-35
2022/12/16 02:16:20;;;;;;;63.38;38.85;;;-0.50;99.90;;;;;;5071371;28;20097;-35
2022/12/16 02:18:46;;;;;;;54.88;36.50;;;-0.50;99.90;;;;;;5065909;28;20040;-35
2022/12/16 02:21:47;;;;;;;63.42;37.95;;;-0.50;99.90;;;;;;5061699;28;20533;-35
2022/12/16 02:24:19;;;;;;;61.08;39.45;;;-0.50;99.90;;;;;;5045357;28;20046;-35
2022/12/16 02:27:03;;;;;;;62.58;40.65;;;-0.50;99.90;;;;;;5075870;28;20122;-35
2022/12/16 02:30:03;;;;;;;59.13;38.53;;;-0.50;99.90;;;;;;5085016;28;20470;-35
2022/12/16 02:32:56;;;;;;;62.38;36.92;;;-0.50;99.90;;;;;;5069031;28;20134;-35
2022/12/16 02:35:45;;;;;;;63.45;38.03;;;-0.50;99.90;;;;;;5070957;28;20039;-35
2022/12/16 02:38:26;;;;;;;68.90;43.47;;;-0.50;99.90;;;;;;5069747;28;20040;-35
2022/12/16 02:40:52;;;;;;;63.28;38.90;;;-0.50;99.90;;;;;;5079076;28;20044;-34
2022/12/16 02:43:40;;;;;;;59.13;38.40;;;-0.50;99.90;;;;;;5062453;28;20060;-35
2022/12/16 02:46:07;;;;;;;61.60;39.63;;;-0.50;99.90;;;;;;5069518;28;20536;-35
2022/12/16 02:48:33;;;;;;;61.22;37.90;;;-0.60;99.90;;;;;;5069171;28;20115;-35
2022/12/16 02:50:59;;;;;;;62.67;39.67;;;-0.60;99.90;;;;;;5071163;28;20378;-35
2022/12/16 02:53:24;;;;;;;61.65;37.38;;;-0.60;99.90;;;;;;5073290;28;20082;-35
2022/12/16 02:56:08;;;;;;;56.22;36.38;;;-0.60;99.90;;;;;;5073767;28;20394;-35
2022/12/16 02:58:51;;;;;;;58.78;39.97;;;-0.60;99.90;;;;;;5089658;28;20041;-35
2022/12/16 03:01:56;;;;;;;59.38;36.97;;;-0.60;99.90;;;;;;5072647;28;20040;-35
2022/12/16 03:04:44;;;;;;;61.58;39.63;;;-0.60;99.90;;;;;;5073544;28;20037;-35
2022/12/16 03:07:13;;;;;;;61.00;38.72;;;-0.60;99.90;;;;;;5086148;28;20068;-35
2022/12/16 03:09:41;;;;;;;60.97;39.78;;;-0.60;99.90;;;;;;5067384;28;20385;-35
2022/12/16 03:12:12;;;;;;;64.22;37.75;;;-0.60;99.90;;;;;;5072988;28;20076;-35
2022/12/16 03:14:41;;;;;;;64.20;38.85;;;-0.60;99.90;;;;;;5068735;28;20084;-35
2022/12/16 03:17:08;;;;;;;62.42;37.80;;;-0.60;99.90;;;;;;5072787;28;20123;-35
2022/12/16 03:19:39;;;;;;;64.18;39.75;;;-0.60;99.90;;;;;;5072648;28;20048;-35
2022/12/16 03:22:12;;;;;;;60.97;37.42;;;-0.60;99.90;;;;;;5072835;28;20584;-35
2022/12/16 03:24:39;;;;;;;60.80;37.43;;;-0.60;99.90;;;;;;5072268;28;20059;-35
2022/12/16 03:27:19;;;;;;;63.47;38.47;;;-0.70;99.90;;;;;;5072744;28;20275;-35
2022/12/16 03:30:23;;;;;;;70.93;41.17;;;-0.70;99.90;;;;;;5068549;28;20228;-35
2022/12/16 03:33:17;;;;;;;68.15;39.13;;;-0.70;99.90;;;;;;5072364;28;20041;-35
2022/12/16 03:35:53;;;;;;;66.93;41.00;;;-0.70;99.90;;;;;;5058999;28;20044;-34
2022/12/16 03:38:20;;;;;;;62.80;39.80;;;-0.70;99.90;;;;;;5073550;28;20032;-35
2022/12/16 03:40:47;;;;;;;61.42;38.78;;;-0.70;99.90;;;;;;5072074;28;20040;-35
2022/12/16 03:43:14;;;;;;;67.63;40.38;;;-0.70;99.90;;;;;;5072225;28;20124;-35
2022/12/16 03:45:42;;;;;;;61.80;38.63;;;-0.80;99.90;;;;;;5064040;28;20082;-35
2022/12/16 03:48:10;;;;;;;67.85;40.20;;;-0.80;99.90;;;;;;5072759;28;20072;-35
2022/12/16 03:50:37;;;;;;;66.68;39.72;;;-0.80;99.90;;;;;;5088379;28;20046;-35
2022/12/16 03:53:04;;;;;;;65.03;39.40;;;-0.80;99.90;;;;;;5071930;28;20046;-35
2022/12/16 03:55:31;;;;;;;68.03;39.05;;;-0.80;99.90;;;;;;5054565;28;20122;-35
2022/12/16 03:57:56;;;;;;;65.45;38.72;;;-0.80;99.90;;;;;;5072327;28;20053;-35
2022/12/16 04:00:23;;;;;;;67.93;42.42;;;-0.80;99.90;;;;;;5071860;28;20052;-35
2022/12/16 04:02:49;;;;;;;72.63;43.30;;;-0.80;99.90;;;;;;5070861;28;20044;-35
2022/12/16 04:05:15;;;;;;;67.97;42.00;;;-0.80;99.90;;;;;;5071966;28;20566;-35
2022/12/16 04:07:41;;;;;;;77.43;42.47;;;-0.80;99.90;;;;;;5072251;28;20127;-35
2022/12/16 04:10:07;;;;;;;89.50;51.08;;;-0.80;99.90;;;;;;5065410;28;20124;-35
2022/12/16 04:26:21;;;;;;;82.10;48.72;;;-0.70;99.90;;;;;;5067308;28;20489;-35
2022/12/16 04:28:47;;;;;;;70.10;42.03;;;-0.70;99.90;;;;;;5056152;28;20040;-35
2022/12/16 04:31:13;;;;;;;72.93;44.40;;;-0.70;99.90;;;;;;5071558;28;20043;-35
